Time;durP1;ratioP1;P1;durP2;ratioP2;P2;SDS_P1;SDS_P2;PMS_P1;PMS_P2;Temp;Humidity;BMP_temperature;BMP_pressure;BME280_temperature;BME280_humidity;BME280_pressure;Samples;Min_cycle;Max_cycle;Signal;HPM_P1;HPM_P2
2022/04/10 00:00:55;;;;;;;5.07;4.10;;;4.30;1.00;;;;;;6269434;28;20751;-56
2022/04/10 00:03:58;;;;;;;4.37;4.10;;;4.50;1.00;;;;;;6286887;28;20240;-57
2022/04/10 00:07:01;;;;;;;4.07;3.97;;;4.30;1.00;;;;;;6288622;28;20378;-57
2022/04/10 00:10:04;;;;;;;4.50;4.10;;;4.40;1.00;;;;;;6294495;28;20237;-57
2022/04/10 00:13:08;;;;;;;4.30;4.00;;;4.20;1.00;;;;;;6288939;28;20265;-55
2022/04/10 00:16:13;;;;;;;4.83;4.50;;;4.30;1.00;;;;;;6275981;28;20237;-57
2022/04/10 00:19:16;;;;;;;5.03;4.63;;;4.40;1.00;;;;;;6275651;28;20232;-56
2022/04/10 00:22:18;;;;;;;5.90;5.30;;;4.40;1.00;;;;;;6285977;28;20284;-56
2022/04/10 00:25:22;;;;;;;5.13;4.60;;;4.30;1.00;;;;;;6262948;28;20248;-55
2022/04/10 00:28:26;;;;;;;4.33;4.20;;;4.40;1.00;;;;;;6262918;28;20544;-58
2022/04/10 00:31:28;;;;;;;5.17;4.83;;;4.10;1.00;;;;;;6262851;28;20338;-55
2022/04/10 00:34:31;;;;;;;5.57;4.40;;;4.30;1.00;;;;;;6273908;28;20316;-56
2022/04/10 00:37:34;;;;;;;6.40;4.70;;;4.20;1.00;;;;;;6274885;28;20283;-56
2022/04/10 00:40:37;;;;;;;5.17;4.73;;;4.20;1.00;;;;;;6287946;28;20237;-56
2022/04/10 00:44:01;;;;;;;5.13;4.67;;;4.20;1.00;;;;;;6280323;28;20454;-55
2022/04/10 00:47:05;;;;;;;5.30;5.00;;;4.00;1.00;;;;;;6263519;28;20315;-56
2022/04/10 00:50:09;;;;;;;5.87;5.13;;;4.10;1.00;;;;;;6270896;28;20721;-55
2022/04/10 00:53:12;;;;;;;6.77;5.30;;;4.40;1.00;;;;;;6283193;28;20250;-55
2022/04/10 00:56:15;;;;;;;4.80;4.40;;;4.30;1.00;;;;;;6262772;28;20371;-56
2022/04/10 00:59:20;;;;;;;6.67;5.00;;;4.20;1.00;;;;;;6262476;28;20655;-56
2022/04/10 01:02:23;;;;;;;5.37;4.87;;;4.40;1.00;;;;;;6264173;28;20372;-55
2022/04/10 01:05:26;;;;;;;6.00;5.10;;;4.50;1.00;;;;;;6275602;28;20234;-56
2022/04/10 01:08:30;;;;;;;6.97;5.60;;;4.40;1.00;;;;;;6278402;28;20252;-57
2022/04/10 01:11:34;;;;;;;7.73;5.57;;;4.20;1.00;;;;;;6286938;28;20316;-57
2022/04/10 01:14:40;;;;;;;7.03;5.73;;;4.20;1.00;;;;;;6281148;28;20717;-57
2022/04/10 01:17:44;;;;;;;7.30;5.60;;;4.10;1.00;;;;;;6283982;28;20349;-56
2022/04/10 01:20:47;;;;;;;5.40;5.00;;;4.10;1.00;;;;;;6285465;28;20237;-54
2022/04/10 01:23:52;;;;;;;6.00;5.57;;;4.00;1.00;;;;;;6279249;28;22849;-57
2022/04/10 01:26:54;;;;;;;5.83;5.30;;;4.10;1.00;;;;;;6261058;28;20262;-55
2022/04/10 01:29:57;;;;;;;5.17;4.87;;;4.00;1.00;;;;;;6260743;28;20238;-56
2022/04/10 01:33:00;;;;;;;5.63;5.33;;;4.00;1.00;;;;;;6264011;28;20230;-57
2022/04/10 01:36:03;;;;;;;5.97;5.50;;;3.90;1.00;;;;;;6276060;28;20238;-55
2022/04/10 01:39:09;;;;;;;7.10;5.20;;;4.10;1.00;;;;;;6281569;28;20701;-55
2022/04/10 01:42:11;;;;;;;7.20;5.97;;;3.90;1.00;;;;;;6286433;28;20233;-56
2022/04/10 01:45:14;;;;;;;5.20;5.00;;;4.20;1.00;;;;;;6283443;28;20236;-55
2022/04/10 01:48:17;;;;;;;5.73;5.30;;;4.00;1.00;;;;;;6284353;28;20233;-53
2022/04/10 01:51:20;;;;;;;5.80;5.40;;;3.90;1.00;;;;;;6284250;28;20256;-56
2022/04/10 01:54:23;;;;;;;6.23;5.73;;;4.20;1.00;;;;;;6261568;28;20285;-55
2022/04/10 01:57:26;;;;;;;5.87;5.37;;;3.80;1.00;;;;;;6260513;28;20315;-55
2022/04/10 02:00:29;;;;;;;5.77;5.47;;;4.00;1.00;;;;;;6260502;28;20317;-55
2022/04/10 02:03:32;;;;;;;5.73;5.43;;;3.70;1.00;;;;;;6267207;28;20615;-55
2022/04/10 02:06:37;;;;;;;5.50;5.20;;;3.90;1.00;;;;;;6282778;28;20322;-56
2022/04/10 02:09:41;;;;;;;5.57;5.00;;;3.90;1.00;;;;;;6286312;28;20254;-57
2022/04/10 02:12:44;;;;;;;6.20;5.50;;;3.80;1.00;;;;;;6265402;28;20234;-57
2022/04/10 02:15:47;;;;;;;7.07;5.73;;;3.90;1.00;;;;;;6267808;28;20259;-55
2022/04/10 02:18:49;;;;;;;6.00;5.43;;;3.30;1.00;;;;;;6283487;28;20719;-56
2022/04/10 02:21:54;;;;;;;5.93;5.17;;;3.50;1.00;;;;;;6268702;28;20663;-57
2022/04/10 02:24:59;;;;;;;5.53;5.10;;;3.60;1.00;;;;;;6258965;28;20622;-56
2022/04/10 02:28:02;;;;;;;6.27;5.67;;;3.70;1.00;;;;;;6258006;28;20791;-58
2022/04/10 02:31:05;;;;;;;8.30;6.10;;;3.80;1.00;;;;;;6259578;28;20656;-56
2022/04/10 02:34:07;;;;;;;8.90;5.70;;;3.60;1.00;;;;;;6266134;28;20237;-56
2022/04/10 02:37:10;;;;;;;7.87;6.30;;;3.70;1.00;;;;;;6286110;28;20754;-56
2022/04/10 02:40:16;;;;;;;6.33;5.73;;;3.70;1.00;;;;;;6281186;28;20232;-56
2022/04/10 02:43:19;;;;;;;9.67;6.57;;;3.70;1.00;;;;;;6283844;28;20265;-56
2022/04/10 02:46:22;;;;;;;7.73;5.83;;;3.80;1.00;;;;;;6285042;28;20332;-56
2022/04/10 02:49:25;;;;;;;7.13;6.47;;;3.70;1.00;;;;;;6276180;28;20717;-57
2022/04/10 02:52:28;;;;;;;7.40;6.27;;;3.90;1.00;;;;;;6283555;28;20788;-56
2022/04/10 02:55:32;;;;;;;8.77;6.53;;;3.60;1.00;;;;;;6285028;28;20427;-56
2022/04/10 02:58:34;;;;;;;12.23;7.07;;;3.90;1.00;;;;;;6252875;28;20761;-56
2022/04/10 03:01:38;;;;;;;6.30;5.63;;;3.90;1.00;;;;;;6267434;28;20744;-55
2022/04/10 03:04:42;;;;;;;8.13;6.57;;;3.60;1.00;;;;;;6265587;28;20241;-54
2022/04/10 03:07:45;;;;;;;7.10;6.03;;;3.70;1.00;;;;;;6285484;28;20310;-56
2022/04/10 03:10:49;;;;;;;10.03;6.77;;;3.70;1.00;;;;;;6282342;28;20284;-56
2022/04/10 03:13:52;;;;;;;7.10;6.40;;;3.90;1.00;;;;;;6259597;28;20222;-54
2022/04/10 03:16:56;;;;;;;6.50;6.00;;;3.30;1.00;;;;;;6274042;28;20324;-56
2022/04/10 03:19:59;;;;;;;8.53;6.20;;;3.60;1.00;;;;;;6276919;28;20768;-56
2022/04/10 03:23:08;;;;;;;8.97;6.23;;;3.80;1.00;;;;;;6258958;28;20741;-56
2022/04/10 03:26:12;;;;;;;7.03;5.30;;;3.60;1.00;;;;;;6258268;28;20258;-57
2022/04/10 03:29:14;;;;;;;7.43;6.47;;;3.80;1.00;;;;;;6256640;28;20328;-56
2022/04/10 03:32:17;;;;;;;8.43;6.20;;;3.70;1.00;;;;;;6249998;28;20237;-56
2022/04/10 03:35:20;;;;;;;6.37;5.77;;;3.80;1.00;;;;;;6283988;28;20326;-55
2022/04/10 03:38:23;;;;;;;8.90;6.73;;;4.00;1.00;;;;;;6278134;28;20251;-55
2022/04/10 03:41:27;;;;;;;8.67;6.33;;;3.70;1.00;;;;;;6279887;28;20765;-56
2022/04/10 03:44:30;;;;;;;6.57;5.90;;;3.90;1.00;;;;;;6282926;28;20229;-56
2022/04/10 03:47:32;;;;;;;6.77;6.07;;;3.90;1.00;;;;;;6293095;28;20717;-56
2022/04/10 03:50:36;;;;;;;6.43;5.87;;;3.90;1.00;;;;;;6277438;28;20233;-56
2022/04/10 03:53:39;;;;;;;7.00;5.90;;;3.80;1.00;;;;;;6282446;28;20263;-56
2022/04/10 03:56:43;;;;;;;7.93;5.77;;;3.90;1.00;;;;;;6284760;28;20320;-57
2022/04/10 03:59:45;;;;;;;7.40;6.70;;;4.00;1.00;;;;;;6286672;28;20263;-56
2022/04/10 04:02:49;;;;;;;10.13;6.20;;;3.80;1.00;;;;;;6288864;28;20253;-55
2022/04/10 04:05:53;;;;;;;9.30;5.57;;;3.90;1.00;;;;;;6287506;28;20237;-52
2022/04/10 04:08:55;;;;;;;10.47;5.73;;;4.00;1.00;;;;;;6289735;28;20241;-56
2022/04/10 04:11:59;;;;;;;5.83;5.23;;;3.70;1.00;;;;;;6287342;28;20442;-55
2022/04/10 04:15:02;;;;;;;6.33;5.73;;;3.80;1.00;;;;;;6284127;28;20372;-56
2022/04/10 04:18:05;;;;;;;7.43;5.80;;;3.80;1.00;;;;;;6286476;28;20375;-57
2022/04/10 04:21:08;;;;;;;8.53;5.60;;;4.00;1.00;;;;;;6287325;28;20321;-56
2022/04/10 04:24:10;;;;;;;5.83;5.40;;;3.80;1.00;;;;;;6296048;28;20248;-56
2022/04/10 04:27:16;;;;;;;6.70;5.33;;;3.90;1.00;;;;;;6293284;28;20645;-55
2022/04/10 04:30:18;;;;;;;9.07;6.27;;;4.10;1.00;;;;;;6288020;28;20245;-57
2022/04/10 04:33:21;;;;;;;9.57;5.50;;;4.10;1.00;;;;;;6289675;28;20457;-55
2022/04/10 04:36:24;;;;;;;8.07;5.90;;;3.90;1.00;;;;;;6289226;28;20705;-55
2022/04/10 04:39:26;;;;;;;7.50;5.33;;;3.90;1.00;;;;;;6284178;28;20239;-57
2022/04/10 04:42:30;;;;;;;8.03;6.03;;;4.00;1.00;;;;;;6287852;28;20312;-56
2022/04/10 04:45:33;;;;;;;7.27;5.73;;;3.90;1.00;;;;;;6288458;28;20324;-56
2022/04/10 04:48:36;;;;;;;8.50;5.63;;;3.80;1.00;;;;;;6281821;28;20230;-55
2022/04/10 04:51:38;;;;;;;9.17;6.00;;;3.70;1.00;;;;;;6291686;28;20731;-56
2022/04/10 04:54:41;;;;;;;12.73;6.40;;;3.80;1.00;;;;;;6288347;28;20413;-55
2022/04/10 04:57:46;;;;;;;8.87;5.20;;;3.90;1.00;;;;;;6286571;28;20310;-56
2022/04/10 05:00:48;;;;;;;11.53;6.20;;;3.90;1.00;;;;;;6285648;28;20224;-56
2022/04/10 05:03:51;;;;;;;5.43;4.97;;;4.00;1.00;;;;;;6287282;28;20386;-56
2022/04/10 05:06:54;;;;;;;9.90;5.73;;;4.00;1.00;;;;;;6300273;28;20595;-55
2022/04/10 05:09:57;;;;;;;9.27;5.77;;;3.80;1.00;;;;;;6293348;28;20316;-56
2022/04/10 05:13:01;;;;;;;6.90;5.17;;;3.90;1.00;;;;;;6287139;28;20320;-55
2022/04/10 05:16:04;;;;;;;8.17;5.77;;;3.90;1.00;;;;;;6285191;28;20251;-55
2022/04/10 05:19:10;;;;;;;6.17;5.57;;;4.00;1.00;;;;;;6291740;28;20670;-55
2022/04/10 05:22:12;;;;;;;6.60;5.40;;;4.10;1.00;;;;;;6294262;28;20306;-55
2022/04/10 05:25:15;;;;;;;7.60;5.50;;;4.10;1.00;;;;;;6285498;28;20276;-56
2022/04/10 05:28:19;;;;;;;9.27;5.10;;;4.10;1.00;;;;;;6287939;28;20274;-56
2022/04/10 05:31:22;;;;;;;8.13;5.70;;;4.20;1.00;;;;;;6287148;28;20977;-54
2022/04/10 05:34:24;;;;;;;6.17;5.07;;;4.10;1.00;;;;;;6285386;28;20241;-53
2022/04/10 05:37:27;;;;;;;6.13;5.20;;;4.20;1.00;;;;;;6292207;28;20257;-55
2022/04/10 05:40:30;;;;;;;12.00;5.53;;;4.40;1.00;;;;;;6283884;28;20582;-56
2022/04/10 05:43:34;;;;;;;8.87;5.20;;;4.20;1.00;;;;;;6290038;28;20308;-55
2022/04/10 05:46:38;;;;;;;9.20;5.60;;;4.50;1.00;;;;;;6293434;28;20746;-56
2022/04/10 05:49:47;;;;;;;9.67;5.83;;;4.40;1.00;;;;;;6290488;28;20233;-61
2022/04/10 05:52:50;;;;;;;8.70;5.10;;;4.60;1.00;;;;;;6289156;28;20237;-57
2022/04/10 05:55:53;;;;;;;8.77;5.30;;;4.50;1.00;;;;;;6286788;28;20320;-56
2022/04/10 05:58:57;;;;;;;9.77;5.77;;;4.60;1.00;;;;;;6292384;28;20318;-56
2022/04/10 06:02:00;;;;;;;6.40;5.30;;;4.40;1.00;;;;;;6289363;28;20343;-56
2022/04/10 06:05:04;;;;;;;7.77;5.03;;;4.50;1.00;;;;;;6286791;28;20245;-56
2022/04/10 06:08:07;;;;;;;8.83;5.37;;;4.60;1.00;;;;;;6290760;28;20332;-55
2022/04/10 06:11:10;;;;;;;7.03;5.40;;;4.70;1.00;;;;;;6281071;28;20475;-56
2022/04/10 06:14:14;;;;;;;7.33;5.30;;;4.60;1.00;;;;;;6286887;28;20310;-55
2022/04/10 06:17:16;;;;;;;11.13;5.77;;;4.40;1.00;;;;;;6282518;28;20229;-56
2022/04/10 06:20:20;;;;;;;12.30;5.63;;;4.60;1.00;;;;;;6290833;28;20264;-57
2022/04/10 06:23:23;;;;;;;9.40;5.47;;;4.80;1.00;;;;;;6283351;28;20253;-59
2022/04/10 06:26:26;;;;;;;6.33;5.23;;;4.90;1.00;;;;;;6293007;28;20365;-57
2022/04/10 06:29:30;;;;;;;9.53;5.40;;;4.90;1.00;;;;;;6293471;28;20471;-60
2022/04/10 06:32:32;;;;;;;9.03;4.80;;;4.90;1.00;;;;;;6295850;28;21102;-56
2022/04/10 06:35:35;;;;;;;9.30;5.30;;;4.90;1.00;;;;;;6288567;28;20816;-56
2022/04/10 06:38:38;;;;;;;10.90;5.43;;;4.90;1.00;;;;;;6280019;28;20249;-55
2022/04/10 06:41:40;;;;;;;6.87;5.40;;;4.90;1.00;;;;;;6279557;28;20717;-55
2022/04/10 06:44:44;;;;;;;8.40;5.27;;;4.90;1.00;;;;;;6287757;28;20250;-55
2022/04/10 06:47:47;;;;;;;8.13;5.10;;;5.00;1.00;;;;;;6295389;28;20232;-56
2022/04/10 06:50:50;;;;;;;6.13;4.67;;;4.90;1.00;;;;;;6287136;28;20582;-57
2022/04/10 06:53:53;;;;;;;6.70;4.77;;;5.00;1.00;;;;;;6286114;28;20240;-58
2022/04/10 06:56:56;;;;;;;7.30;4.87;;;4.90;1.00;;;;;;6291837;28;20760;-57
2022/04/10 07:00:00;;;;;;;6.53;4.70;;;5.30;1.00;;;;;;6285667;28;20383;-56
2022/04/10 07:03:03;;;;;;;10.37;5.73;;;5.30;1.00;;;;;;6286591;28;20237;-56
2022/04/10 07:06:05;;;;;;;6.93;5.00;;;5.30;1.00;;;;;;6295494;28;20237;-57
2022/04/10 07:09:08;;;;;;;5.97;5.10;;;5.50;1.00;;;;;;6291838;28;20266;-56
2022/04/10 07:12:11;;;;;;;6.47;4.73;;;5.50;1.00;;;;;;6283202;28;20316;-57
2022/04/10 07:15:15;;;;;;;10.83;5.10;;;5.60;1.00;;;;;;6287022;28;20259;-59
2022/04/10 07:18:17;;;;;;;8.50;5.63;;;5.60;1.00;;;;;;6286572;28;20479;-58
2022/04/10 07:23:41;;;;;;;7.27;5.00;;;5.70;1.00;;;;;;6291029;28;20236;-57
2022/04/10 07:24:42;;;;;;;9.00;5.33;;;5.70;1.00;;;;;;6296202;28;20737;-56
2022/04/10 07:27:45;;;;;;;9.97;5.07;;;5.70;1.00;;;;;;6281280;28;20634;-56
2022/04/10 07:30:49;;;;;;;8.23;5.50;;;5.70;1.00;;;;;;6285505;28;20754;-56
2022/04/10 07:33:52;;;;;;;6.13;4.93;;;5.70;1.00;;;;;;6291685;28;20240;-56
2022/04/10 07:36:55;;;;;;;5.57;4.10;;;5.70;1.00;;;;;;6289950;28;20386;-57
2022/04/10 07:39:57;;;;;;;8.80;4.63;;;5.70;1.00;;;;;;6295089;28;20410;-57
2022/04/10 07:43:05;;;;;;;10.67;4.80;;;5.90;1.00;;;;;;6285328;28;20233;-57
2022/04/10 07:49:29;;;;;;;10.07;5.27;;;5.40;1.00;;;;;;6283666;28;20335;-54
2022/04/10 07:52:32;;;;;;;7.83;5.67;;;5.60;1.00;;;;;;6286726;28;20230;-55
2022/04/10 07:55:35;;;;;;;9.37;4.80;;;5.90;1.00;;;;;;6285080;28;20839;-56
2022/04/10 07:58:38;;;;;;;7.80;4.73;;;5.80;1.00;;;;;;6289643;28;20299;-55
2022/04/10 08:01:44;;;;;;;6.20;5.30;;;5.90;1.00;;;;;;6291805;28;20735;-56
2022/04/10 08:04:47;;;;;;;11.07;5.40;;;5.40;1.00;;;;;;6281939;28;20233;-56
2022/04/10 08:07:50;;;;;;;12.87;5.97;;;6.00;1.00;;;;;;6287599;28;20316;-57
2022/04/10 08:10:52;;;;;;;10.00;5.60;;;6.00;1.00;;;;;;6284846;28;20233;-58
2022/04/10 08:13:56;;;;;;;8.73;5.50;;;6.00;1.00;;;;;;6287579;28;20229;-57
2022/04/10 08:17:00;;;;;;;8.07;5.13;;;6.00;1.00;;;;;;6284544;28;20328;-57
2022/04/10 08:20:04;;;;;;;9.93;5.10;;;5.80;1.00;;;;;;6295467;28;20225;-58
2022/04/10 08:23:08;;;;;;;6.73;5.17;;;5.90;1.00;;;;;;6284605;28;20788;-57
2022/04/10 08:26:11;;;;;;;11.57;5.00;;;5.90;1.00;;;;;;6281998;28;20354;-58
2022/04/10 08:29:14;;;;;;;7.97;5.00;;;5.90;1.00;;;;;;6286352;28;20383;-58
2022/04/10 08:32:18;;;;;;;9.00;5.10;;;6.20;1.00;;;;;;6291323;28;20603;-56
2022/04/10 08:35:21;;;;;;;7.93;5.73;;;6.30;1.00;;;;;;6278078;28;20252;-57
2022/04/10 08:38:23;;;;;;;8.73;5.20;;;6.50;1.00;;;;;;6285500;28;20237;-58
2022/04/10 08:41:31;;;;;;;7.57;5.10;;;6.50;1.00;;;;;;6290064;28;20302;-57
2022/04/10 08:44:34;;;;;;;12.47;5.03;;;6.80;1.00;;;;;;6282407;28;20252;-58
2022/04/10 08:47:40;;;;;;;10.23;5.13;;;7.00;1.00;;;;;;6283088;28;20417;-57
2022/04/10 08:50:43;;;;;;;9.77;5.07;;;7.00;1.00;;;;;;6290601;28;20243;-57
2022/04/10 08:53:47;;;;;;;11.63;4.60;;;6.90;1.00;;;;;;6283141;28;20236;-57
2022/04/10 08:56:51;;;;;;;11.73;5.00;;;7.00;1.00;;;;;;6289323;28;20228;-57
2022/04/10 08:59:57;;;;;;;12.47;5.27;;;7.10;1.00;;;;;;6286491;28;20229;-56
2022/04/10 09:03:01;;;;;;;5.67;5.07;;;7.30;1.00;;;;;;6286578;28;20236;-57
2022/04/10 09:06:06;;;;;;;8.47;5.17;;;7.70;1.00;;;;;;6287436;28;20483;-57
2022/04/10 09:09:12;;;;;;;7.20;5.03;;;7.10;1.00;;;;;;6294309;28;20238;-56
2022/04/10 09:12:17;;;;;;;11.47;5.00;;;7.00;1.00;;;;;;6288122;28;20237;-57
2022/04/10 09:15:31;;;;;;;10.43;4.77;;;7.00;1.00;;;;;;6293589;28;20328;-57
2022/04/10 09:18:49;;;;;;;6.17;4.67;;;7.00;1.00;;;;;;6286754;28;20693;-58
2022/04/10 09:21:52;;;;;;;8.33;5.27;;;7.20;1.00;;;;;;6283787;28;20242;-57
2022/04/10 09:25:02;;;;;;;8.33;4.87;;;7.30;1.00;;;;;;6286389;28;20455;-58
2022/04/10 09:28:05;;;;;;;8.13;4.90;;;7.40;1.00;;;;;;6282656;28;20827;-57
2022/04/10 09:31:27;;;;;;;10.57;4.50;;;7.50;1.00;;;;;;6275981;28;20278;-57
2022/04/10 09:34:33;;;;;;;5.40;4.33;;;7.70;1.00;;;;;;6279268;28;20619;-58
2022/04/10 09:37:57;;;;;;;9.50;4.80;;;7.70;1.00;;;;;;6287958;28;20287;-59
2022/04/10 09:41:12;;;;;;;13.43;5.03;;;7.90;1.00;;;;;;6285782;28;20374;-58
2022/04/10 09:44:21;;;;;;;7.57;4.90;;;7.90;1.00;;;;;;6279314;28;20725;-58
2022/04/10 09:47:26;;;;;;;10.00;4.97;;;7.90;1.00;;;;;;6287337;28;20239;-58
2022/04/10 09:50:33;;;;;;;7.13;4.60;;;7.80;1.00;;;;;;6280669;28;20233;-57
2022/04/10 09:53:36;;;;;;;6.50;4.37;;;7.70;1.00;;;;;;6282995;28;20274;-57
2022/04/10 09:56:41;;;;;;;11.50;4.73;;;7.40;1.00;;;;;;6285444;28;20282;-57
2022/04/10 09:59:46;;;;;;;6.37;4.63;;;7.20;1.00;;;;;;6285012;28;20763;-57
2022/04/10 10:02:51;;;;;;;10.00;4.50;;;7.00;1.00;;;;;;6283163;28;20240;-58
2022/04/10 10:05:56;;;;;;;9.63;4.77;;;7.00;1.00;;;;;;6273406;28;20379;-58
2022/04/10 10:08:59;;;;;;;12.90;5.13;;;7.40;1.00;;;;;;6283019;28;20229;-58
2022/04/10 10:12:04;;;;;;;7.27;4.53;;;7.50;1.00;;;;;;6286348;28;20840;-57
2022/04/10 10:15:08;;;;;;;9.07;5.10;;;7.80;1.00;;;;;;6289237;28;20786;-57
2022/04/10 10:18:13;;;;;;;5.63;4.10;;;8.20;1.00;;;;;;6277663;28;20866;-58
2022/04/10 10:21:17;;;;;;;8.90;3.93;;;8.40;1.00;;;;;;6286569;28;20497;-57
2022/04/10 10:24:22;;;;;;;6.00;3.97;;;8.50;1.00;;;;;;6280938;28;20316;-58
2022/04/10 10:27:51;;;;;;;4.53;4.23;;;8.60;99.90;;;;;;6286309;28;20285;-58
2022/04/10 10:31:12;;;;;;;6.10;4.00;;;8.60;99.90;;;;;;6279011;28;20240;-57
2022/04/10 10:34:16;;;;;;;6.73;4.10;;;8.60;99.90;;;;;;6283915;28;20519;-57
2022/04/10 10:37:29;;;;;;;9.23;4.17;;;8.60;99.90;;;;;;6283121;28;20253;-58
2022/04/10 10:40:32;;;;;;;6.80;4.00;;;8.80;99.90;;;;;;6282999;28;20278;-58
2022/04/10 10:43:34;;;;;;;7.60;3.60;;;8.70;99.90;;;;;;6285300;28;20233;-58
2022/04/10 10:46:56;;;;;;;8.93;4.20;;;8.80;99.90;;;;;;6289927;28;20282;-57
2022/04/10 10:49:58;;;;;;;7.43;4.13;;;8.80;99.90;;;;;;6284354;28;20233;-58
2022/04/10 10:53:09;;;;;;;7.30;4.07;;;8.80;99.90;;;;;;6286280;28;20236;-58
2022/04/10 10:56:15;;;;;;;9.60;4.07;;;8.90;99.90;;;;;;6280163;28;20728;-57
2022/04/10 10:59:39;;;;;;;4.70;3.60;;;9.10;99.90;;;;;;6285350;28;20228;-58
2022/04/10 11:02:49;;;;;;;6.20;3.87;;;9.10;99.90;;;;;;6278921;28;20233;-57
2022/04/10 11:06:05;;;;;;;7.43;3.90;;;9.20;99.90;;;;;;6284052;28;20718;-58
2022/04/10 11:09:22;;;;;;;8.77;4.23;;;9.20;99.90;;;;;;6285493;28;20418;-58
2022/04/10 11:12:31;;;;;;;6.80;3.77;;;9.10;99.90;;;;;;6264007;28;20373;-56
2022/04/10 11:15:44;;;;;;;5.70;3.70;;;9.00;99.90;;;;;;6256515;28;20238;-58
2022/04/10 11:18:51;;;;;;;5.80;3.50;;;9.00;99.90;;;;;;6266019;28;20870;-58
2022/04/10 11:21:56;;;;;;;4.43;3.50;;;9.00;99.90;;;;;;6264556;28;20226;-59
2022/04/10 11:25:01;;;;;;;4.57;3.53;;;9.20;99.90;;;;;;6270101;28;20522;-59
2022/04/10 11:28:07;;;;;;;4.63;3.57;;;9.40;99.90;;;;;;6266475;28;20245;-58
2022/04/10 11:31:29;;;;;;;5.67;3.70;;;9.20;99.90;;;;;;6255116;28;20877;-58
2022/04/10 11:34:40;;;;;;;4.73;3.70;;;8.90;99.90;;;;;;6263960;28;20273;-57
2022/04/10 11:37:44;;;;;;;4.57;3.47;;;8.70;99.90;;;;;;6261856;28;20230;-58
2022/04/10 11:40:52;;;;;;;3.93;3.60;;;8.30;99.90;;;;;;6256501;28;20600;-58
2022/04/10 11:43:55;;;;;;;5.27;4.77;;;7.80;1.00;;;;;;6260599;28;20242;-59
2022/04/10 11:47:00;;;;;;;4.60;4.13;;;7.50;1.00;;;;;;6271268;28;20285;-58
2022/04/10 11:50:05;;;;;;;4.83;4.00;;;7.20;1.00;;;;;;6271279;28;20257;-56
2022/04/10 11:53:10;;;;;;;6.17;4.20;;;7.00;1.00;;;;;;6275312;28;20234;-56
2022/04/10 11:56:14;;;;;;;5.73;4.10;;;6.90;1.00;;;;;;6259011;28;20547;-57
2022/04/10 11:59:16;;;;;;;5.27;3.90;;;7.00;1.00;;;;;;6264160;28;20795;-58
2022/04/10 12:02:19;;;;;;;7.53;4.43;;;7.30;1.00;;;;;;6261070;28;20273;-57
2022/04/10 12:05:27;;;;;;;7.77;4.00;;;7.80;1.00;;;;;;6258892;28;20284;-59
2022/04/10 12:08:30;;;;;;;5.40;4.20;;;8.10;1.00;;;;;;6262432;28;20304;-57
2022/04/10 12:11:39;;;;;;;5.37;4.30;;;8.20;1.00;;;;;;6267611;28;20753;-56
2022/04/10 12:14:42;;;;;;;7.80;4.20;;;8.20;1.00;;;;;;6263251;28;20300;-58
2022/04/10 12:17:45;;;;;;;3.80;3.53;;;8.00;1.00;;;;;;6260519;28;20994;-56
2022/04/10 12:21:09;;;;;;;5.50;3.60;;;8.00;1.00;;;;;;6283660;28;20247;-57
2022/04/10 12:24:19;;;;;;;4.03;3.70;;;8.00;99.90;;;;;;6267410;28;20726;-55
2022/04/10 12:27:23;;;;;;;5.80;3.63;;;8.10;99.90;;;;;;6261177;28;20277;-58
2022/04/10 12:30:26;;;;;;;6.27;4.10;;;8.30;99.90;;;;;;6268676;28;20312;-57
2022/04/10 12:33:29;;;;;;;10.83;4.17;;;8.30;99.90;;;;;;6261439;28;20325;-55
2022/04/10 12:36:32;;;;;;;4.20;3.90;;;8.30;99.90;;;;;;6258308;28;20883;-55
2022/04/10 12:39:36;;;;;;;8.17;4.10;;;8.30;99.90;;;;;;6259817;28;20229;-56
2022/04/10 12:42:41;;;;;;;5.70;3.57;;;8.30;99.90;;;;;;6261123;28;20238;-58
2022/04/10 12:45:44;;;;;;;5.83;3.67;;;8.50;99.90;;;;;;6259206;28;20241;-57
2022/04/10 12:48:49;;;;;;;6.37;3.53;;;8.50;99.90;;;;;;6259096;28;20602;-56
2022/04/10 12:51:55;;;;;;;6.93;3.83;;;8.40;99.90;;;;;;6257955;28;20512;-56
2022/04/10 12:54:57;;;;;;;5.33;3.67;;;8.70;99.90;;;;;;6261411;28;20244;-57
2022/04/10 12:58:04;;;;;;;5.80;3.60;;;8.70;99.90;;;;;;6260950;28;20706;-57
2022/04/10 13:01:06;;;;;;;4.70;3.10;;;8.70;99.90;;;;;;6258998;28;20233;-56
2022/04/10 13:04:10;;;;;;;3.40;3.20;;;8.70;99.90;;;;;;6271156;28;20229;-58
2022/04/10 13:07:16;;;;;;;4.33;3.43;;;8.50;99.90;;;;;;6261603;28;20611;-57
2022/04/10 13:10:19;;;;;;;3.70;3.40;;;8.30;99.90;;;;;;6266778;28;20264;-57
2022/04/10 13:13:23;;;;;;;10.47;3.57;;;8.30;99.90;;;;;;6269759;28;20669;-56
2022/04/10 13:16:27;;;;;;;4.00;3.60;;;8.30;99.90;;;;;;6269691;28;20352;-56
2022/04/10 13:19:31;;;;;;;4.77;3.60;;;8.40;99.90;;;;;;6257355;28;20230;-56
2022/04/10 13:22:35;;;;;;;5.23;3.67;;;8.50;99.90;;;;;;6262773;28;20502;-57
2022/04/10 13:25:37;;;;;;;3.40;3.20;;;8.50;99.90;;;;;;6259574;28;20234;-56
2022/04/10 13:28:41;;;;;;;7.67;3.63;;;8.50;99.90;;;;;;6256395;28;20519;-56
2022/04/10 13:31:44;;;;;;;4.13;3.63;;;8.50;99.90;;;;;;6256782;28;20770;-56
2022/04/10 13:34:47;;;;;;;5.40;3.90;;;8.70;99.90;;;;;;6249745;28;20499;-56
2022/04/10 13:37:50;;;;;;;4.90;4.10;;;8.90;99.90;;;;;;6256609;28;20392;-58
2022/04/10 13:40:53;;;;;;;4.67;3.63;;;9.00;99.90;;;;;;6266809;28;20487;-57
2022/04/10 13:43:59;;;;;;;4.60;3.83;;;9.10;99.90;;;;;;6255523;28;20503;-57
2022/04/10 13:47:02;;;;;;;4.20;3.90;;;9.20;99.90;;;;;;6255628;28;20256;-56
2022/04/10 13:50:06;;;;;;;3.70;3.50;;;9.20;99.90;;;;;;6259045;28;20238;-57
2022/04/10 13:53:09;;;;;;;3.90;3.70;;;9.20;99.90;;;;;;6269436;28;20245;-57
2022/04/10 13:56:11;;;;;;;4.27;3.70;;;9.20;99.90;;;;;;6259966;28;20706;-58
2022/04/10 13:59:16;;;;;;;3.97;3.67;;;9.20;99.90;;;;;;6259242;28;20913;-56
2022/04/10 14:02:19;;;;;;;4.37;3.53;;;9.10;99.90;;;;;;6254687;28;20563;-56
2022/04/10 14:05:22;;;;;;;3.90;3.60;;;9.20;99.90;;;;;;6273317;28;20248;-57
2022/04/10 14:08:26;;;;;;;4.00;3.70;;;9.30;99.90;;;;;;6285229;28;20313;-56
2022/04/10 14:11:49;;;;;;;5.50;3.77;;;9.40;99.90;;;;;;6255316;28;20234;-57
2022/04/10 14:14:53;;;;;;;3.83;3.50;;;9.30;99.90;;;;;;6251265;28;20238;-56
2022/04/10 14:17:57;;;;;;;4.93;3.70;;;9.20;99.90;;;;;;6257441;28;20942;-57
2022/04/10 14:21:00;;;;;;;4.07;3.70;;;9.30;99.90;;;;;;6261639;28;20238;-57
2022/04/10 14:24:05;;;;;;;3.93;3.63;;;9.30;99.90;;;;;;6256871;28;20585;-57
2022/04/10 14:27:08;;;;;;;3.93;3.53;;;9.30;99.90;;;;;;6262973;28;20230;-56
2022/04/10 14:30:13;;;;;;;4.07;3.50;;;9.30;99.90;;;;;;6259159;28;20361;-57
2022/04/10 14:33:15;;;;;;;3.80;3.50;;;9.20;99.90;;;;;;6260470;28;20635;-57
2022/04/10 14:36:18;;;;;;;3.43;3.23;;;9.20;99.90;;;;;;6261064;28;20245;-58
2022/04/10 14:39:21;;;;;;;3.20;3.10;;;9.20;99.90;;;;;;6259822;28;20245;-56
2022/04/10 14:42:23;;;;;;;5.10;3.33;;;9.00;99.90;;;;;;6270217;28;20326;-56
2022/04/10 14:45:27;;;;;;;3.07;2.93;;;8.60;99.90;;;;;;6257527;28;20640;-57
2022/04/10 14:48:31;;;;;;;3.20;3.07;;;8.40;99.90;;;;;;6256305;28;20616;-56
2022/04/10 14:51:34;;;;;;;3.37;3.07;;;8.20;99.90;;;;;;6260813;28;20287;-57
2022/04/10 14:54:36;;;;;;;3.10;2.97;;;7.90;1.00;;;;;;6257984;28;20264;-56
2022/04/10 14:57:39;;;;;;;3.17;3.07;;;8.10;1.00;;;;;;6261496;28;20230;-57
2022/04/10 15:00:43;;;;;;;3.20;2.90;;;8.40;1.00;;;;;;6257642;28;20438;-57
2022/04/10 15:03:46;;;;;;;3.57;3.10;;;8.70;99.90;;;;;;6257323;28;20229;-57
2022/04/10 15:06:49;;;;;;;3.40;3.20;;;9.00;99.90;;;;;;6256174;28;20386;-57
2022/04/10 15:09:51;;;;;;;3.13;3.03;;;9.00;99.90;;;;;;6260376;28;20222;-57
2022/04/10 15:12:54;;;;;;;2.97;2.90;;;9.20;99.90;;;;;;6255305;28;20746;-57
2022/04/10 15:15:58;;;;;;;3.50;3.20;;;9.40;99.90;;;;;;6256958;28;20561;-57
2022/04/10 15:19:01;;;;;;;2.90;2.80;;;9.60;99.90;;;;;;6257173;28;20316;-57
2022/04/10 15:22:04;;;;;;;3.07;2.97;;;9.30;99.90;;;;;;6256471;28;20698;-57
2022/04/10 15:25:08;;;;;;;3.47;3.17;;;9.20;99.90;;;;;;6263615;28;20238;-56
2022/04/10 15:28:11;;;;;;;3.63;2.90;;;8.90;99.90;;;;;;6257660;28;20455;-56
2022/04/10 15:31:16;;;;;;;3.27;2.90;;;8.70;99.90;;;;;;6266776;28;20249;-57
2022/04/10 15:34:19;;;;;;;2.70;2.70;;;8.60;99.90;;;;;;6260232;28;20612;-57
2022/04/10 15:37:21;;;;;;;3.00;2.90;;;8.60;99.90;;;;;;6261699;28;20242;-57
2022/04/10 15:40:24;;;;;;;2.80;2.70;;;8.50;99.90;;;;;;6263186;28;20607;-57
2022/04/10 15:43:27;;;;;;;2.63;2.60;;;8.50;99.90;;;;;;6247141;28;20745;-57
2022/04/10 15:46:31;;;;;;;3.93;3.60;;;8.60;99.90;;;;;;6245584;28;20434;-53
2022/04/10 15:49:34;;;;;;;4.13;2.60;;;8.50;99.90;;;;;;6256644;28;20237;-56
2022/04/10 15:52:40;;;;;;;3.23;3.00;;;8.40;99.90;;;;;;6260984;28;21010;-56
2022/04/10 15:55:43;;;;;;;3.87;3.20;;;8.30;99.90;;;;;;6261572;28;20382;-58
2022/04/10 15:58:47;;;;;;;3.47;3.20;;;8.10;99.90;;;;;;6265193;28;20520;-56
2022/04/10 16:01:51;;;;;;;3.27;3.17;;;8.00;99.90;;;;;;6261868;28;20336;-55
2022/04/10 16:04:54;;;;;;;4.27;3.40;;;7.90;1.00;;;;;;6261349;28;20376;-55
2022/04/10 16:07:58;;;;;;;3.27;3.07;;;7.80;1.00;;;;;;6263259;28;20245;-55
2022/04/10 16:11:00;;;;;;;3.50;3.27;;;7.80;1.00;;;;;;6261953;28;20615;-55
2022/04/10 16:14:03;;;;;;;3.87;3.43;;;7.70;1.00;;;;;;6258388;28;20244;-56
2022/04/10 16:17:08;;;;;;;3.83;3.40;;;7.60;1.00;;;;;;6260253;28;20312;-56
2022/04/10 16:20:12;;;;;;;3.23;3.13;;;7.60;1.00;;;;;;6261231;28;20721;-56
2022/04/10 16:23:15;;;;;;;4.83;3.40;;;7.50;1.00;;;;;;6259126;28;20245;-57